Terminal Aerodrome Forecast
Issued by NWS Quad Cities IA IL

Home | Current Version | Previous Version | Text Only | Print | Product List | Glossary On
Versions: 1 2 3 4 5 6 7 8 9 10 11 12 13 14 15 16 17 18 19 20
000
FTUS43 KDVN 240312 AAA
TAFDBQ
TAF AMD
KDBQ 240312Z 2403/2424 17009KT P6SM SCT015 OVC025
      TEMPO 2405/2409 4SM -SHRA BKN015 OVC025
     FM240900 16009KT P6SM TSRA BKN020CB OVC030
     FM241300 18009KT P6SM BKN018 OVC025
     FM241900 20007KT P6SM VCTS SCT025CB BKN035=

USA.gov is the U.S. government's official web portal to all federal, state and local government web resources and services.